Boulder Creek, CA (95006)

3:16 PM PDT on August 03, 2015 (GMT -0700)
Redwood Grove | | Change Station
CLOSE
Current Station
Personal Weather Station
Location: Boulder Creek, CA
Elevation: 581 ft
Nearby Weather Stations

Elev 581 ft 37.16 °N, 122.13 °W | Updated 1 second ago

Partly Cloudy
Partly Cloudy
79.7 °F
Feels Like 80 °F
N
1.0
Wind Variable Wind from ESE
Gusts 1.0 mph

Today
High -- | Low -- °F
--% Chance of Precip.
Yesterday
High -- | Low -- °F
Precip. -- in
6:14 AM 8:13 PM
Waning Gibbous, 83% visible
Pressure 29.94 in
Visibility 10.0 miles
Clouds Few 7000 ft
Scattered Clouds 16000 ft
Heat Index 80 °F
Dew Point 58 °F
Humidity 48%
Rainfall 0.00 in
Snow Depth Not available.
UV 8 out of 12
Pollen 4.30 out of 12
Air Quality Not available.
Flu Activity Not available.
METAR KSJC 032153Z 28010KT 10SM FEW070 SCT160 24/12 A2994 RMK AO2 SLP137 T02440122

More Conditions Fewer Conditions

Pressure 29.94 in
Visibility 10.0 miles
Clouds Few 7000 ft
Scattered Clouds 16000 ft
Heat Index 80 °F
Dew Point 58 °F
Humidity 48%
Rainfall 0.00 in
Snow Depth Not available.
UV 8 out of 12
Pollen 4.30 out of 12
Air Quality Not available.
Flu Activity Not available.
METAR KSJC 032153Z 28010KT 10SM FEW070 SCT160 24/12 A2994 RMK AO2 SLP137 T02440122

More Conditions Fewer Conditions

10-Day Weather Forecast

×

Almanac

Astronomy

Aug. 03, 2015 Rise Set
Actual Time
Civil Twilight
Nautical Twilight
Astronomical Twilight
Moon
Length of Visible Light
Length of Day
Tomorrow will be .
, % of the Moon is Illuminated

Today's Extremes

State Highs State Lows

Community

WunderPhotos

Upload Photos

1,843,782 photos uploaded!

WunderBlogs® & News

Nearby

Air Quality

  Air Quality AQ Index Pollutant
Not available.

Snow Depth

Station Depth Elevation

Earthquake Activity

City Distance Mag. Time & Date
Minimum magnitude displayed is 2.5.

Coastal Water Temperatures

Place Temperature

Stations

Nearby Weather Stations

Station Location Temp. Windchill Dew Point Humidity Wind Precip. Elev Updated Type